sensor_id;sensor_type;location;lat;lon;timestamp;P1;durP1;ratioP1;P2;durP2;ratioP2
57856;SDS011;43683;48.650;9.290;2024-03-23T00:55:58;11.57;;;6.10;;
57856;SDS011;43683;48.650;9.290;2024-03-23T00:58:24;10.45;;;6.90;;
57856;SDS011;43683;48.650;9.290;2024-03-23T01:00:49;10.43;;;6.47;;
57856;SDS011;43683;48.650;9.290;2024-03-23T01:03:15;12.20;;;6.90;;
57856;SDS011;43683;48.650;9.290;2024-03-23T01:05:40;9.73;;;6.57;;
57856;SDS011;43683;48.650;9.290;2024-03-23T01:08:06;12.27;;;7.22;;
57856;SDS011;43683;48.650;9.290;2024-03-23T01:10:32;8.65;;;6.90;;
57856;SDS011;43683;48.650;9.290;2024-03-23T01:12:57;10.75;;;6.28;;
57856;SDS011;43683;48.650;9.290;2024-03-23T01:15:22;8.77;;;5.78;;
57856;SDS011;43683;48.650;9.290;2024-03-23T01:17:48;9.57;;;6.75;;
57856;SDS011;43683;48.650;9.290;2024-03-23T01:20:13;8.50;;;6.30;;
57856;SDS011;43683;48.650;9.290;2024-03-23T01:22:39;10.07;;;6.22;;
57856;SDS011;43683;48.650;9.290;2024-03-23T01:25:05;9.55;;;5.97;;
57856;SDS011;43683;48.650;9.290;2024-03-23T01:27:31;10.48;;;6.15;;
57856;SDS011;43683;48.650;9.290;2024-03-23T01:29:56;11.18;;;5.80;;
57856;SDS011;43683;48.650;9.290;2024-03-23T01:32:22;8.32;;;5.38;;
57856;SDS011;43683;48.650;9.290;2024-03-23T01:34:47;7.55;;;5.25;;
57856;SDS011;43683;48.650;9.290;2024-03-23T01:37:13;7.03;;;4.68;;
57856;SDS011;43683;48.650;9.290;2024-03-23T01:39:38;12.40;;;8.02;;
57856;SDS011;43683;48.650;9.290;2024-03-23T01:42:04;12.23;;;7.00;;
57856;SDS011;43683;48.650;9.290;2024-03-23T01:44:29;11.93;;;7.68;;
57856;SDS011;43683;48.650;9.290;2024-03-23T01:46:55;8.98;;;5.80;;
57856;SDS011;43683;48.650;9.290;2024-03-23T01:49:20;12.82;;;6.88;;
57856;SDS011;43683;48.650;9.290;2024-03-23T01:51:46;8.88;;;6.13;;
57856;SDS011;43683;48.650;9.290;2024-03-23T01:54:11;9.55;;;5.30;;
57856;SDS011;43683;48.650;9.290;2024-03-23T01:56:37;8.55;;;5.63;;
57856;SDS011;43683;48.650;9.290;2024-03-23T01:59:06;9.63;;;5.53;;
57856;SDS011;43683;48.650;9.290;2024-03-23T02:01:32;8.98;;;5.40;;
57856;SDS011;43683;48.650;9.290;2024-03-23T02:04:00;9.63;;;5.15;;
57856;SDS011;43683;48.650;9.290;2024-03-23T02:06:26;9.35;;;5.13;;
57856;SDS011;43683;48.650;9.290;2024-03-23T02:08:52;8.02;;;4.75;;
57856;SDS011;43683;48.650;9.290;2024-03-23T02:11:19;11.40;;;5.90;;
57856;SDS011;43683;48.650;9.290;2024-03-23T02:13:44;9.20;;;4.95;;
57856;SDS011;43683;48.650;9.290;2024-03-23T02:16:10;9.48;;;5.47;;
57856;SDS011;43683;48.650;9.290;2024-03-23T02:18:35;8.40;;;5.90;;
57856;SDS011;43683;48.650;9.290;2024-03-23T02:21:01;9.77;;;5.20;;
57856;SDS011;43683;48.650;9.290;2024-03-23T02:23:27;8.48;;;5.45;;
57856;SDS011;43683;48.650;9.290;2024-03-23T02:25:52;7.93;;;4.85;;
57856;SDS011;43683;48.650;9.290;2024-03-23T02:28:20;7.88;;;5.32;;
57856;SDS011;43683;48.650;9.290;2024-03-23T02:30:47;6.85;;;4.03;;
57856;SDS011;43683;48.650;9.290;2024-03-23T02:33:13;7.80;;;4.25;;
57856;SDS011;43683;48.650;9.290;2024-03-23T02:35:39;6.55;;;4.10;;
57856;SDS011;43683;48.650;9.290;2024-03-23T02:38:05;6.28;;;3.65;;
57856;SDS011;43683;48.650;9.290;2024-03-23T02:40:30;6.68;;;3.83;;
57856;SDS011;43683;48.650;9.290;2024-03-23T02:42:55;7.57;;;4.50;;
57856;SDS011;43683;48.650;9.290;2024-03-23T02:45:21;7.43;;;4.57;;
57856;SDS011;43683;48.650;9.290;2024-03-23T02:47:47;5.95;;;3.42;;
57856;SDS011;43683;48.650;9.290;2024-03-23T02:50:16;7.90;;;3.20;;
57856;SDS011;43683;48.650;9.290;2024-03-23T02:52:45;6.72;;;3.38;;
57856;SDS011;43683;48.650;9.290;2024-03-23T02:55:11;5.55;;;3.17;;
57856;SDS011;43683;48.650;9.290;2024-03-23T02:57:37;3.75;;;2.95;;
57856;SDS011;43683;48.650;9.290;2024-03-23T03:00:03;6.28;;;3.10;;
57856;SDS011;43683;48.650;9.290;2024-03-23T03:02:30;4.93;;;2.97;;
57856;SDS011;43683;48.650;9.290;2024-03-23T03:04:55;5.78;;;3.53;;
57856;SDS011;43683;48.650;9.290;2024-03-23T03:07:21;5.82;;;3.35;;
57856;SDS011;43683;48.650;9.290;2024-03-23T03:09:46;5.05;;;2.90;;
57856;SDS011;43683;48.650;9.290;2024-03-23T03:12:11;3.15;;;2.83;;
57856;SDS011;43683;48.650;9.290;2024-03-23T03:14:37;5.13;;;2.97;;
57856;SDS011;43683;48.650;9.290;2024-03-23T03:17:02;5.00;;;2.60;;
57856;SDS011;43683;48.650;9.290;2024-03-23T03:19:28;4.13;;;2.50;;
57856;SDS011;43683;48.650;9.290;2024-03-23T03:21:54;4.88;;;2.72;;
57856;SDS011;43683;48.650;9.290;2024-03-23T03:24:20;3.65;;;2.72;;
57856;SDS011;43683;48.650;9.290;2024-03-23T03:26:46;5.53;;;2.60;;
57856;SDS011;43683;48.650;9.290;2024-03-23T03:29:11;3.35;;;2.53;;
57856;SDS011;43683;48.650;9.290;2024-03-23T03:31:40;3.42;;;2.38;;
57856;SDS011;43683;48.650;9.290;2024-03-23T03:34:05;5.28;;;2.50;;
57856;SDS011;43683;48.650;9.290;2024-03-23T03:36:31;5.25;;;2.75;;
57856;SDS011;43683;48.650;9.290;2024-03-23T03:38:57;4.72;;;2.50;;
57856;SDS011;43683;48.650;9.290;2024-03-23T03:41:22;4.22;;;2.70;;
57856;SDS011;43683;48.650;9.290;2024-03-23T03:43:47;3.88;;;2.47;;
57856;SDS011;43683;48.650;9.290;2024-03-23T03:46:13;3.90;;;2.50;;
57856;SDS011;43683;48.650;9.290;2024-03-23T03:48:39;3.42;;;2.50;;
57856;SDS011;43683;48.650;9.290;2024-03-23T03:51:04;4.90;;;2.85;;
57856;SDS011;43683;48.650;9.290;2024-03-23T03:53:30;3.92;;;2.55;;
57856;SDS011;43683;48.650;9.290;2024-03-23T03:55:56;3.72;;;2.38;;
57856;SDS011;43683;48.650;9.290;2024-03-23T03:58:25;3.80;;;2.53;;
57856;SDS011;43683;48.650;9.290;2024-03-23T04:00:50;8.52;;;2.78;;
57856;SDS011;43683;48.650;9.290;2024-03-23T04:03:16;4.78;;;2.50;;
57856;SDS011;43683;48.650;9.290;2024-03-23T04:05:41;3.75;;;2.40;;
57856;SDS011;43683;48.650;9.290;2024-03-23T04:08:07;6.05;;;2.63;;
57856;SDS011;43683;48.650;9.290;2024-03-23T04:10:32;3.75;;;2.70;;
57856;SDS011;43683;48.650;9.290;2024-03-23T04:12:58;4.05;;;2.63;;
57856;SDS011;43683;48.650;9.290;2024-03-23T04:15:23;3.72;;;2.50;;
57856;SDS011;43683;48.650;9.290;2024-03-23T04:17:49;4.07;;;2.80;;
57856;SDS011;43683;48.650;9.290;2024-03-23T04:20:14;2.92;;;2.60;;
57856;SDS011;43683;48.650;9.290;2024-03-23T04:22:42;3.55;;;2.55;;
57856;SDS011;43683;48.650;9.290;2024-03-23T04:25:08;4.75;;;2.60;;
57856;SDS011;43683;48.650;9.290;2024-03-23T04:27:35;6.13;;;3.28;;
57856;SDS011;43683;48.650;9.290;2024-03-23T04:30:01;6.25;;;3.03;;
57856;SDS011;43683;48.650;9.290;2024-03-23T04:32:28;5.40;;;3.30;;
57856;SDS011;43683;48.650;9.290;2024-03-23T04:34:54;5.72;;;3.40;;
57856;SDS011;43683;48.650;9.290;2024-03-23T04:37:20;4.95;;;3.00;;
57856;SDS011;43683;48.650;9.290;2024-03-23T04:39:46;5.30;;;2.95;;
57856;SDS011;43683;48.650;9.290;2024-03-23T04:42:11;4.70;;;3.17;;
57856;SDS011;43683;48.650;9.290;2024-03-23T04:44:37;4.28;;;2.97;;
57856;SDS011;43683;48.650;9.290;2024-03-23T04:47:03;4.03;;;3.00;;
57856;SDS011;43683;48.650;9.290;2024-03-23T04:49:30;6.75;;;3.40;;
57856;SDS011;43683;48.650;9.290;2024-03-23T04:51:55;8.20;;;3.20;;
57856;SDS011;43683;48.650;9.290;2024-03-23T04:54:21;4.43;;;2.75;;
57856;SDS011;43683;48.650;9.290;2024-03-23T04:56:46;3.40;;;3.10;;
57856;SDS011;43683;48.650;9.290;2024-03-23T04:59:12;5.85;;;2.95;;
57856;SDS011;43683;48.650;9.290;2024-03-23T05:01:38;4.22;;;2.67;;
57856;SDS011;43683;48.650;9.290;2024-03-23T05:04:06;7.32;;;3.38;;
57856;SDS011;43683;48.650;9.290;2024-03-23T05:06:32;5.03;;;3.15;;
57856;SDS011;43683;48.650;9.290;2024-03-23T05:08:59;4.13;;;2.50;;
57856;SDS011;43683;48.650;9.290;2024-03-23T05:11:24;3.67;;;2.92;;
57856;SDS011;43683;48.650;9.290;2024-03-23T05:13:50;6.32;;;2.97;;
57856;SDS011;43683;48.650;9.290;2024-03-23T05:16:15;7.60;;;3.10;;
57856;SDS011;43683;48.650;9.290;2024-03-23T05:18:41;3.97;;;2.63;;
57856;SDS011;43683;48.650;9.290;2024-03-23T05:21:07;6.60;;;3.60;;
57856;SDS011;43683;48.650;9.290;2024-03-23T05:23:32;5.53;;;3.20;;
57856;SDS011;43683;48.650;9.290;2024-03-23T05:25:58;6.55;;;3.55;;
57856;SDS011;43683;48.650;9.290;2024-03-23T05:28:23;7.93;;;4.35;;
57856;SDS011;43683;48.650;9.290;2024-03-23T05:30:55;6.63;;;4.32;;
57856;SDS011;43683;48.650;9.290;2024-03-23T05:33:22;6.53;;;4.20;;
57856;SDS011;43683;48.650;9.290;2024-03-23T05:35:55;9.38;;;5.40;;
57856;SDS011;43683;48.650;9.290;2024-03-23T05:38:22;8.02;;;5.40;;
57856;SDS011;43683;48.650;9.290;2024-03-23T05:40:54;9.52;;;5.38;;
57856;SDS011;43683;48.650;9.290;2024-03-23T05:43:20;11.38;;;5.00;;
57856;SDS011;43683;48.650;9.290;2024-03-23T05:45:52;11.52;;;6.30;;
57856;SDS011;43683;48.650;9.290;2024-03-23T05:48:22;10.73;;;6.60;;
57856;SDS011;43683;48.650;9.290;2024-03-23T05:50:48;10.27;;;5.95;;
57856;SDS011;43683;48.650;9.290;2024-03-23T05:53:14;12.27;;;6.55;;
57856;SDS011;43683;48.650;9.290;2024-03-23T05:55:41;12.83;;;6.27;;
57856;SDS011;43683;48.650;9.290;2024-03-23T05:58:06;16.58;;;7.15;;
57856;SDS011;43683;48.650;9.290;2024-03-23T06:00:32;10.20;;;7.00;;
57856;SDS011;43683;48.650;9.290;2024-03-23T06:02:57;12.32;;;7.30;;
57856;SDS011;43683;48.650;9.290;2024-03-23T06:05:23;13.85;;;7.28;;
57856;SDS011;43683;48.650;9.290;2024-03-23T06:07:49;11.45;;;6.80;;
57856;SDS011;43683;48.650;9.290;2024-03-23T06:10:14;16.80;;;9.02;;
57856;SDS011;43683;48.650;9.290;2024-03-23T06:12:40;12.85;;;7.05;;
57856;SDS011;43683;48.650;9.290;2024-03-23T06:15:06;12.70;;;7.05;;
57856;SDS011;43683;48.650;9.290;2024-03-23T06:17:35;11.57;;;6.32;;
57856;SDS011;43683;48.650;9.290;2024-03-23T06:20:01;9.50;;;5.22;;
57856;SDS011;43683;48.650;9.290;2024-03-23T06:22:27;6.60;;;3.35;;
57856;SDS011;43683;48.650;9.290;2024-03-23T06:24:52;8.27;;;4.28;;
57856;SDS011;43683;48.650;9.290;2024-03-23T06:27:18;4.93;;;2.22;;
57856;SDS011;43683;48.650;9.290;2024-03-23T06:29:43;5.72;;;3.17;;
57856;SDS011;43683;48.650;9.290;2024-03-23T06:32:09;5.35;;;3.15;;
57856;SDS011;43683;48.650;9.290;2024-03-23T06:34:34;6.90;;;3.25;;
57856;SDS011;43683;48.650;9.290;2024-03-23T06:37:00;7.63;;;3.72;;
57856;SDS011;43683;48.650;9.290;2024-03-23T06:39:25;6.78;;;3.28;;
57856;SDS011;43683;48.650;9.290;2024-03-23T06:41:51;5.55;;;2.90;;
57856;SDS011;43683;48.650;9.290;2024-03-23T06:44:18;5.95;;;3.03;;
57856;SDS011;43683;48.650;9.290;2024-03-23T06:46:44;6.28;;;3.28;;
57856;SDS011;43683;48.650;9.290;2024-03-23T06:49:10;5.65;;;3.17;;
57856;SDS011;43683;48.650;9.290;2024-03-23T06:51:36;5.85;;;3.85;;
57856;SDS011;43683;48.650;9.290;2024-03-23T06:54:03;4.68;;;2.38;;
57856;SDS011;43683;48.650;9.290;2024-03-23T06:56:28;7.15;;;4.22;;
57856;SDS011;43683;48.650;9.290;2024-03-23T06:58:54;4.10;;;2.33;;
57856;SDS011;43683;48.650;9.290;2024-03-23T07:01:20;4.15;;;2.83;;
57856;SDS011;43683;48.650;9.290;2024-03-23T07:03:46;1.80;;;1.63;;
57856;SDS011;43683;48.650;9.290;2024-03-23T07:06:11;2.67;;;1.70;;
57856;SDS011;43683;48.650;9.290;2024-03-23T07:08:37;1.23;;;1.13;;
57856;SDS011;43683;48.650;9.290;2024-03-23T07:11:02;1.60;;;1.40;;
57856;SDS011;43683;48.650;9.290;2024-03-23T07:13:28;2.28;;;1.48;;
57856;SDS011;43683;48.650;9.290;2024-03-23T07:15:54;0.95;;;0.95;;
57856;SDS011;43683;48.650;9.290;2024-03-23T07:18:23;1.23;;;1.10;;
57856;SDS011;43683;48.650;9.290;2024-03-23T07:20:55;2.10;;;1.20;;
57856;SDS011;43683;48.650;9.290;2024-03-23T07:23:22;1.10;;;1.00;;
57856;SDS011;43683;48.650;9.290;2024-03-23T07:26:01;1.17;;;1.10;;
57856;SDS011;43683;48.650;9.290;2024-03-23T07:28:29;0.75;;;0.75;;
57856;SDS011;43683;48.650;9.290;2024-03-23T07:31:05;2.22;;;0.93;;
57856;SDS011;43683;48.650;9.290;2024-03-23T07:33:35;0.90;;;0.90;;
57856;SDS011;43683;48.650;9.290;2024-03-23T07:36:11;0.85;;;0.85;;
57856;SDS011;43683;48.650;9.290;2024-03-23T07:38:37;0.80;;;0.80;;
57856;SDS011;43683;48.650;9.290;2024-03-23T07:41:06;0.68;;;0.68;;
57856;SDS011;43683;48.650;9.290;2024-03-23T07:43:32;0.93;;;0.85;;
57856;SDS011;43683;48.650;9.290;2024-03-23T07:45:58;0.70;;;0.70;;
57856;SDS011;43683;48.650;9.290;2024-03-23T07:48:24;0.70;;;0.70;;
57856;SDS011;43683;48.650;9.290;2024-03-23T07:51:06;1.23;;;0.90;;
57856;SDS011;43683;48.650;9.290;2024-03-23T07:53:36;0.70;;;0.70;;
57856;SDS011;43683;48.650;9.290;2024-03-23T07:56:05;0.70;;;0.70;;
57856;SDS011;43683;48.650;9.290;2024-03-23T07:58:32;1.45;;;1.05;;
57856;SDS011;43683;48.650;9.290;2024-03-23T08:01:31;1.10;;;0.80;;
57856;SDS011;43683;48.650;9.290;2024-03-23T08:03:50;1.13;;;0.80;;
57856;SDS011;43683;48.650;9.290;2024-03-23T08:06:16;2.05;;;0.60;;
57856;SDS011;43683;48.650;9.290;2024-03-23T08:08:45;0.82;;;0.70;;
57856;SDS011;43683;48.650;9.290;2024-03-23T08:11:11;0.80;;;0.80;;
57856;SDS011;43683;48.650;9.290;2024-03-23T08:13:41;0.65;;;0.65;;
57856;SDS011;43683;48.650;9.290;2024-03-23T08:16:07;1.23;;;0.70;;
57856;SDS011;43683;48.650;9.290;2024-03-23T08:18:36;0.75;;;0.75;;
57856;SDS011;43683;48.650;9.290;2024-03-23T08:21:05;0.70;;;0.70;;
57856;SDS011;43683;48.650;9.290;2024-03-23T08:23:32;0.50;;;0.50;;
57856;SDS011;43683;48.650;9.290;2024-03-23T08:28:34;0.60;;;0.60;;
57856;SDS011;43683;48.650;9.290;2024-03-23T08:33:30;0.70;;;0.70;;
57856;SDS011;43683;48.650;9.290;2024-03-23T08:35:56;1.00;;;0.90;;
57856;SDS011;43683;48.650;9.290;2024-03-23T08:38:30;2.45;;;1.10;;
57856;SDS011;43683;48.650;9.290;2024-03-23T08:40:59;0.90;;;0.90;;
57856;SDS011;43683;48.650;9.290;2024-03-23T08:43:25;1.00;;;1.00;;
57856;SDS011;43683;48.650;9.290;2024-03-23T08:45:51;1.37;;;1.10;;
57856;SDS011;43683;48.650;9.290;2024-03-23T08:48:18;1.52;;;1.35;;
57856;SDS011;43683;48.650;9.290;2024-03-23T08:50:57;1.42;;;1.23;;
57856;SDS011;43683;48.650;9.290;2024-03-23T08:53:26;1.67;;;1.30;;
57856;SDS011;43683;48.650;9.290;2024-03-23T08:55:53;3.17;;;1.70;;
57856;SDS011;43683;48.650;9.290;2024-03-23T08:58:19;4.13;;;1.85;;
57856;SDS011;43683;48.650;9.290;2024-03-23T09:00:45;1.90;;;1.58;;
57856;SDS011;43683;48.650;9.290;2024-03-23T09:03:11;1.30;;;1.20;;
57856;SDS011;43683;48.650;9.290;2024-03-23T09:05:40;1.77;;;1.25;;
57856;SDS011;43683;48.650;9.290;2024-03-23T09:08:06;2.28;;;1.40;;
57856;SDS011;43683;48.650;9.290;2024-03-23T09:10:32;1.48;;;1.13;;
57856;SDS011;43683;48.650;9.290;2024-03-23T09:13:00;2.58;;;1.50;;
57856;SDS011;43683;48.650;9.290;2024-03-23T09:15:25;2.72;;;1.73;;
57856;SDS011;43683;48.650;9.290;2024-03-23T09:17:50;1.63;;;1.25;;
57856;SDS011;43683;48.650;9.290;2024-03-23T09:20:16;3.47;;;1.95;;
57856;SDS011;43683;48.650;9.290;2024-03-23T09:22:41;2.17;;;1.70;;
57856;SDS011;43683;48.650;9.290;2024-03-23T09:25:07;3.33;;;2.05;;
57856;SDS011;43683;48.650;9.290;2024-03-23T09:27:33;3.55;;;1.98;;
57856;SDS011;43683;48.650;9.290;2024-03-23T09:29:58;2.97;;;1.90;;
57856;SDS011;43683;48.650;9.290;2024-03-23T09:32:24;6.03;;;2.40;;
57856;SDS011;43683;48.650;9.290;2024-03-23T09:34:49;5.57;;;2.00;;
57856;SDS011;43683;48.650;9.290;2024-03-23T09:37:15;2.90;;;1.88;;
57856;SDS011;43683;48.650;9.290;2024-03-23T09:39:40;4.10;;;2.03;;
57856;SDS011;43683;48.650;9.290;2024-03-23T09:42:06;3.30;;;2.10;;
57856;SDS011;43683;48.650;9.290;2024-03-23T09:44:32;2.92;;;2.15;;
57856;SDS011;43683;48.650;9.290;2024-03-23T09:47:00;6.22;;;2.55;;
57856;SDS011;43683;48.650;9.290;2024-03-23T09:49:26;4.75;;;2.80;;
57856;SDS011;43683;48.650;9.290;2024-03-23T09:51:52;8.50;;;3.20;;
57856;SDS011;43683;48.650;9.290;2024-03-23T09:54:20;5.05;;;2.25;;
57856;SDS011;43683;48.650;9.290;2024-03-23T09:56:46;5.90;;;2.33;;
57856;SDS011;43683;48.650;9.290;2024-03-23T09:59:12;4.18;;;2.50;;
57856;SDS011;43683;48.650;9.290;2024-03-23T10:01:37;5.40;;;2.88;;
57856;SDS011;43683;48.650;9.290;2024-03-23T10:04:03;7.10;;;2.88;;
57856;SDS011;43683;48.650;9.290;2024-03-23T10:06:29;6.93;;;3.00;;
57856;SDS011;43683;48.650;9.290;2024-03-23T10:08:54;4.75;;;2.88;;
57856;SDS011;43683;48.650;9.290;2024-03-23T10:11:20;6.72;;;2.42;;
57856;SDS011;43683;48.650;9.290;2024-03-23T10:13:46;8.30;;;3.00;;
57856;SDS011;43683;48.650;9.290;2024-03-23T10:16:12;5.20;;;2.60;;
57856;SDS011;43683;48.650;9.290;2024-03-23T10:18:46;3.63;;;2.33;;
57856;SDS011;43683;48.650;9.290;2024-03-23T10:21:14;4.95;;;2.58;;
57856;SDS011;43683;48.650;9.290;2024-03-23T10:23:41;4.93;;;2.60;;
57856;SDS011;43683;48.650;9.290;2024-03-23T10:28:59;4.38;;;2.22;;
57856;SDS011;43683;48.650;9.290;2024-03-23T10:31:30;5.25;;;2.45;;
57856;SDS011;43683;48.650;9.290;2024-03-23T10:33:56;6.75;;;2.75;;
57856;SDS011;43683;48.650;9.290;2024-03-23T10:36:22;5.15;;;2.55;;
57856;SDS011;43683;48.650;9.290;2024-03-23T10:38:50;6.93;;;3.00;;
57856;SDS011;43683;48.650;9.290;2024-03-23T10:41:16;4.43;;;2.50;;
57856;SDS011;43683;48.650;9.290;2024-03-23T10:43:44;5.95;;;3.25;;
57856;SDS011;43683;48.650;9.290;2024-03-23T10:46:11;8.43;;;3.70;;
57856;SDS011;43683;48.650;9.290;2024-03-23T10:48:37;11.70;;;5.10;;
57856;SDS011;43683;48.650;9.290;2024-03-23T10:51:03;4.75;;;2.63;;
57856;SDS011;43683;48.650;9.290;2024-03-23T10:53:30;6.05;;;2.90;;
57856;SDS011;43683;48.650;9.290;2024-03-23T10:55:58;6.35;;;2.90;;
57856;SDS011;43683;48.650;9.290;2024-03-23T10:58:26;5.63;;;2.65;;
57856;SDS011;43683;48.650;9.290;2024-03-23T11:00:55;5.10;;;2.45;;
57856;SDS011;43683;48.650;9.290;2024-03-23T11:03:31;3.42;;;2.38;;
57856;SDS011;43683;48.650;9.290;2024-03-23T11:06:04;4.40;;;2.55;;
57856;SDS011;43683;48.650;9.290;2024-03-23T11:08:34;2.65;;;1.85;;
57856;SDS011;43683;48.650;9.290;2024-03-23T11:11:17;3.60;;;1.90;;
57856;SDS011;43683;48.650;9.290;2024-03-23T11:13:44;2.83;;;1.70;;
57856;SDS011;43683;48.650;9.290;2024-03-23T11:19:42;2.90;;;1.60;;
57856;SDS011;43683;48.650;9.290;2024-03-23T11:21:59;4.77;;;2.20;;
57856;SDS011;43683;48.650;9.290;2024-03-23T11:24:25;4.30;;;1.92;;
57856;SDS011;43683;48.650;9.290;2024-03-23T11:26:50;2.88;;;2.00;;
57856;SDS011;43683;48.650;9.290;2024-03-23T11:29:16;3.47;;;1.73;;
57856;SDS011;43683;48.650;9.290;2024-03-23T11:31:49;2.72;;;1.30;;
57856;SDS011;43683;48.650;9.290;2024-03-23T11:34:16;1.83;;;1.73;;
57856;SDS011;43683;48.650;9.290;2024-03-23T11:36:42;2.00;;;1.80;;
57856;SDS011;43683;48.650;9.290;2024-03-23T11:39:15;4.28;;;2.28;;
57856;SDS011;43683;48.650;9.290;2024-03-23T11:41:45;3.08;;;2.00;;
57856;SDS011;43683;48.650;9.290;2024-03-23T11:44:21;4.13;;;2.10;;
57856;SDS011;43683;48.650;9.290;2024-03-23T11:46:49;2.83;;;1.95;;
57856;SDS011;43683;48.650;9.290;2024-03-23T11:49:24;3.95;;;2.05;;
57856;SDS011;43683;48.650;9.290;2024-03-23T11:51:54;2.85;;;1.75;;
57856;SDS011;43683;48.650;9.290;2024-03-23T11:54:21;7.43;;;2.40;;
57856;SDS011;43683;48.650;9.290;2024-03-23T11:56:54;4.75;;;2.35;;
57856;SDS011;43683;48.650;9.290;2024-03-23T11:59:39;4.32;;;2.50;;
57856;SDS011;43683;48.650;9.290;2024-03-23T12:02:06;4.20;;;2.00;;
57856;SDS011;43683;48.650;9.290;2024-03-23T12:04:36;4.47;;;1.98;;
57856;SDS011;43683;48.650;9.290;2024-03-23T12:07:15;2.70;;;1.58;;
57856;SDS011;43683;48.650;9.290;2024-03-23T12:09:44;5.57;;;1.90;;
57856;SDS011;43683;48.650;9.290;2024-03-23T12:12:16;4.03;;;1.80;;
57856;SDS011;43683;48.650;9.290;2024-03-23T12:15:00;3.35;;;1.50;;
57856;SDS011;43683;48.650;9.290;2024-03-23T12:17:27;3.67;;;1.63;;
57856;SDS011;43683;48.650;9.290;2024-03-23T12:19:52;5.45;;;2.50;;
57856;SDS011;43683;48.650;9.290;2024-03-23T12:22:21;5.32;;;2.10;;
57856;SDS011;43683;48.650;9.290;2024-03-23T12:24:47;4.65;;;1.80;;
57856;SDS011;43683;48.650;9.290;2024-03-23T12:27:13;2.53;;;1.60;;
57856;SDS011;43683;48.650;9.290;2024-03-23T12:29:39;2.75;;;1.95;;
57856;SDS011;43683;48.650;9.290;2024-03-23T12:32:06;5.80;;;2.70;;
57856;SDS011;43683;48.650;9.290;2024-03-23T12:34:32;2.80;;;1.65;;
57856;SDS011;43683;48.650;9.290;2024-03-23T12:36:57;3.88;;;2.03;;
57856;SDS011;43683;48.650;9.290;2024-03-23T12:39:23;6.55;;;1.90;;
57856;SDS011;43683;48.650;9.290;2024-03-23T12:41:49;4.45;;;1.50;;
57856;SDS011;43683;48.650;9.290;2024-03-23T12:44:15;4.60;;;2.55;;
57856;SDS011;43683;48.650;9.290;2024-03-23T12:46:44;3.17;;;1.80;;
57856;SDS011;43683;48.650;9.290;2024-03-23T12:49:10;4.15;;;1.98;;
57856;SDS011;43683;48.650;9.290;2024-03-23T12:51:36;5.30;;;2.00;;
57856;SDS011;43683;48.650;9.290;2024-03-23T12:54:02;6.38;;;2.03;;
57856;SDS011;43683;48.650;9.290;2024-03-23T12:56:27;4.28;;;2.00;;
57856;SDS011;43683;48.650;9.290;2024-03-23T12:58:53;6.95;;;2.97;;
57856;SDS011;43683;48.650;9.290;2024-03-23T13:01:20;5.93;;;2.10;;
57856;SDS011;43683;48.650;9.290;2024-03-23T13:03:46;5.63;;;2.00;;
57856;SDS011;43683;48.650;9.290;2024-03-23T13:06:12;7.30;;;2.10;;
57856;SDS011;43683;48.650;9.290;2024-03-23T13:08:38;7.28;;;2.70;;
57856;SDS011;43683;48.650;9.290;2024-03-23T13:11:05;4.38;;;2.70;;
57856;SDS011;43683;48.650;9.290;2024-03-23T13:13:31;5.53;;;2.72;;
57856;SDS011;43683;48.650;9.290;2024-03-23T13:15:58;7.28;;;2.20;;
57856;SDS011;43683;48.650;9.290;2024-03-23T13:18:23;4.32;;;2.08;;
57856;SDS011;43683;48.650;9.290;2024-03-23T13:20:49;6.60;;;2.10;;
57856;SDS011;43683;48.650;9.290;2024-03-23T13:23:14;3.47;;;1.92;;
57856;SDS011;43683;48.650;9.290;2024-03-23T13:25:40;7.18;;;2.33;;
57856;SDS011;43683;48.650;9.290;2024-03-23T13:28:05;3.67;;;1.75;;
57856;SDS011;43683;48.650;9.290;2024-03-23T13:30:31;5.72;;;2.00;;
57856;SDS011;43683;48.650;9.290;2024-03-23T13:32:57;4.53;;;1.90;;
57856;SDS011;43683;48.650;9.290;2024-03-23T13:35:22;4.32;;;1.77;;
57856;SDS011;43683;48.650;9.290;2024-03-23T13:37:48;3.05;;;1.58;;
57856;SDS011;43683;48.650;9.290;2024-03-23T13:40:13;2.75;;;1.80;;
57856;SDS011;43683;48.650;9.290;2024-03-23T13:42:39;2.30;;;1.30;;
57856;SDS011;43683;48.650;9.290;2024-03-23T13:45:04;2.08;;;1.38;;
57856;SDS011;43683;48.650;9.290;2024-03-23T13:47:30;1.25;;;1.05;;
57856;SDS011;43683;48.650;9.290;2024-03-23T13:49:56;1.10;;;1.05;;
57856;SDS011;43683;48.650;9.290;2024-03-23T13:52:21;2.45;;;1.20;;
57856;SDS011;43683;48.650;9.290;2024-03-23T13:54:51;1.13;;;0.80;;
57856;SDS011;43683;48.650;9.290;2024-03-23T13:57:17;4.15;;;1.38;;
57856;SDS011;43683;48.650;9.290;2024-03-23T13:59:45;2.15;;;1.10;;
57856;SDS011;43683;48.650;9.290;2024-03-23T14:02:11;1.80;;;1.13;;
57856;SDS011;43683;48.650;9.290;2024-03-23T14:04:39;1.55;;;1.17;;
57856;SDS011;43683;48.650;9.290;2024-03-23T14:07:05;2.17;;;1.20;;
57856;SDS011;43683;48.650;9.290;2024-03-23T14:09:32;2.65;;;1.02;;
57856;SDS011;43683;48.650;9.290;2024-03-23T14:11:57;2.13;;;1.02;;
57856;SDS011;43683;48.650;9.290;2024-03-23T14:14:25;2.35;;;1.15;;
57856;SDS011;43683;48.650;9.290;2024-03-23T14:16:50;2.58;;;1.30;;
57856;SDS011;43683;48.650;9.290;2024-03-23T14:19:16;2.17;;;1.38;;
57856;SDS011;43683;48.650;9.290;2024-03-23T14:21:41;2.88;;;1.25;;
57856;SDS011;43683;48.650;9.290;2024-03-23T14:24:07;4.80;;;1.50;;
57856;SDS011;43683;48.650;9.290;2024-03-23T14:26:34;3.40;;;1.27;;
57856;SDS011;43683;48.650;9.290;2024-03-23T14:29:00;3.80;;;1.40;;
57856;SDS011;43683;48.650;9.290;2024-03-23T14:31:25;5.93;;;1.90;;
57856;SDS011;43683;48.650;9.290;2024-03-23T14:33:51;2.95;;;1.50;;
57856;SDS011;43683;48.650;9.290;2024-03-23T14:36:17;1.38;;;1.23;;
57856;SDS011;43683;48.650;9.290;2024-03-23T14:38:42;4.53;;;1.40;;
57856;SDS011;43683;48.650;9.290;2024-03-23T14:41:12;3.63;;;1.33;;
57856;SDS011;43683;48.650;9.290;2024-03-23T14:43:37;2.40;;;1.40;;
57856;SDS011;43683;48.650;9.290;2024-03-23T14:48:36;2.53;;;1.38;;
57856;SDS011;43683;48.650;9.290;2024-03-23T14:51:02;2.13;;;1.30;;
57856;SDS011;43683;48.650;9.290;2024-03-23T14:53:30;2.45;;;1.30;;
57856;SDS011;43683;48.650;9.290;2024-03-23T14:55:59;1.83;;;1.08;;
57856;SDS011;43683;48.650;9.290;2024-03-23T14:58:26;2.70;;;1.38;;
57856;SDS011;43683;48.650;9.290;2024-03-23T15:00:51;2.60;;;1.40;;
57856;SDS011;43683;48.650;9.290;2024-03-23T15:03:17;2.88;;;1.45;;
57856;SDS011;43683;48.650;9.290;2024-03-23T15:05:53;3.53;;;1.83;;
57856;SDS011;43683;48.650;9.290;2024-03-23T15:08:19;1.77;;;1.02;;
57856;SDS011;43683;48.650;9.290;2024-03-23T15:10:44;3.92;;;1.83;;
57856;SDS011;43683;48.650;9.290;2024-03-23T15:13:10;3.50;;;1.30;;
57856;SDS011;43683;48.650;9.290;2024-03-23T15:15:39;4.90;;;1.45;;
57856;SDS011;43683;48.650;9.290;2024-03-23T15:18:07;2.88;;;1.58;;
57856;SDS011;43683;48.650;9.290;2024-03-23T15:20:33;3.55;;;1.40;;
57856;SDS011;43683;48.650;9.290;2024-03-23T15:23:00;2.90;;;1.20;;
57856;SDS011;43683;48.650;9.290;2024-03-23T15:25:27;2.83;;;1.77;;
57856;SDS011;43683;48.650;9.290;2024-03-23T15:27:52;1.10;;;1.00;;
57856;SDS011;43683;48.650;9.290;2024-03-23T15:30:19;3.72;;;1.60;;
57856;SDS011;43683;48.650;9.290;2024-03-23T15:32:45;2.22;;;1.20;;
57856;SDS011;43683;48.650;9.290;2024-03-23T15:35:11;2.88;;;1.20;;
57856;SDS011;43683;48.650;9.290;2024-03-23T15:37:36;2.90;;;1.50;;
57856;SDS011;43683;48.650;9.290;2024-03-23T15:40:04;5.50;;;2.58;;
57856;SDS011;43683;48.650;9.290;2024-03-23T15:42:31;5.90;;;2.78;;
57856;SDS011;43683;48.650;9.290;2024-03-23T15:44:56;3.85;;;1.70;;
57856;SDS011;43683;48.650;9.290;2024-03-23T15:47:22;2.92;;;1.30;;
57856;SDS011;43683;48.650;9.290;2024-03-23T15:49:48;2.92;;;1.30;;
57856;SDS011;43683;48.650;9.290;2024-03-23T15:52:14;2.75;;;1.20;;